Time;durP1;ratioP1;P1;durP2;ratioP2;P2;SDS_P1;SDS_P2;PMS_P1;PMS_P2;Temp;Humidity;BMP_temperature;BMP_pressure;BME280_temperature;BME280_humidity;BME280_pressure;Samples;Min_cycle;Max_cycle;Signal;HPM_P1;HPM_P2
2022/05/14 00:01:13;;;;;;;;;2.00;2.00;;;;;16.35;50.74;102064.47;4987720;28;49639;-72
2022/05/14 00:03:39;;;;;;;;;3.00;1.75;;;;;16.41;50.91;102067.22;4987481;28;49805;-69
2022/05/14 00:06:08;;;;;;;;;4.50;3.00;;;;;16.50;50.85;102087.66;4993891;28;49927;-68
2022/05/14 00:08:33;;;;;;;;;2.50;2.00;;;;;16.49;51.01;102091.19;4993806;28;50369;-67
2022/05/14 00:13:44;;;;;;;;;2.75;2.75;;;;;16.46;50.97;102086.75;4994023;28;49701;-70
2022/05/14 00:16:11;;;;;;;;;2.00;2.00;;;;;16.43;51.36;102089.34;4993949;28;49588;-67
2022/05/14 00:18:37;;;;;;;;;2.75;2.25;;;;;16.34;50.92;102077.69;4993729;28;49717;-69
2022/05/14 00:21:03;;;;;;;;;2.00;2.00;;;;;16.37;51.15;102090.97;4993585;28;49638;-70
2022/05/14 00:23:29;;;;;;;;;3.00;2.00;;;;;16.18;51.33;102057.94;4993754;28;49511;-73
2022/05/14 00:25:55;;;;;;;;;3.25;3.25;;;;;16.34;51.24;102094.47;4993937;28;49986;-72
2022/05/14 00:28:20;;;;;;;;;5.75;4.50;;;;;15.98;51.37;102029.34;4993596;28;50374;-71
2022/05/14 00:30:47;;;;;;;;;2.25;2.00;;;;;16.27;51.37;102085.50;4993554;28;49798;-69
2022/05/14 00:33:12;;;;;;;;;2.25;2.25;;;;;16.10;51.54;102055.16;4987462;28;49713;-67
2022/05/14 00:35:38;;;;;;;;;2.00;2.00;;;;;16.17;52.20;102080.00;4993720;28;49832;-71
2022/05/14 00:38:05;;;;;;;;;3.25;3.25;;;;;16.23;51.76;102082.78;4993460;28;50475;-71
2022/05/14 00:40:35;;;;;;;;;1.75;1.75;;;;;16.21;51.74;102079.19;4993561;28;49770;-72
2022/05/14 00:43:01;;;;;;;;;3.25;3.25;;;;;16.18;51.90;102074.75;4993571;28;49602;-71
2022/05/14 00:45:28;;;;;;;;;3.00;3.00;;;;;16.09;52.31;102073.69;4993544;28;50015;-71
2022/05/14 00:47:58;;;;;;;;;2.25;2.25;;;;;15.70;52.26;102004.09;4993219;28;50709;-66
2022/05/14 00:50:30;;;;;;;;;3.00;3.00;;;;;16.08;52.36;102080.72;4993343;28;49881;-66
2022/05/14 00:53:01;;;;;;;;;6.00;3.50;;;;;16.01;52.35;102069.13;4993260;28;49777;-68
2022/05/14 00:55:27;;;;;;;;;5.00;3.00;;;;;16.04;52.91;102065.66;4993576;28;49954;-72
2022/05/14 00:57:52;;;;;;;;;3.00;3.00;;;;;16.01;52.92;102066.47;4993147;28;49814;-72
2022/05/14 01:00:21;;;;;;;;;2.00;2.00;;;;;15.96;52.93;102060.22;4993401;28;49699;-67
2022/05/14 01:02:47;;;;;;;;;3.50;1.25;;;;;15.98;53.25;102062.88;4986784;28;49741;-68
2022/05/14 01:05:13;;;;;;;;;3.00;2.75;;;;;15.96;53.44;102059.31;4993047;28;50048;-71
2022/05/14 01:07:40;;;;;;;;;2.75;2.00;;;;;15.90;53.55;102052.13;4993205;28;50719;-66
2022/05/14 01:10:10;;;;;;;;;2.50;2.50;;;;;15.93;53.68;102070.75;4993227;28;49815;-70
2022/05/14 01:12:40;;;;;;;;;4.00;4.00;;;;;15.90;53.96;102061.84;4993106;28;49713;-72
2022/05/14 01:15:08;;;;;;;;;4.00;2.25;;;;;15.86;53.26;102049.41;4993497;28;49788;-72
2022/05/14 01:17:34;;;;;;;;;3.50;2.75;;;;;15.86;53.52;102066.19;4993020;28;50494;-67
2022/05/14 01:19:59;;;;;;;;;4.75;2.00;;;;;15.78;54.11;102054.53;4986349;28;49560;-66
2022/05/14 01:23:04;;;;;;;;;3.50;3.50;;;;;15.74;54.45;102047.41;4993530;28;49563;-66
2022/05/14 01:28:25;;;;;;;;;3.75;3.75;;;;;15.74;54.50;102058.91;4996383;28;50064;-72
2022/05/14 01:31:00;;;;;;;;;3.00;3.00;;;;;15.72;53.89;102052.66;4996360;28;49626;-72
2022/05/14 01:33:25;;;;;;;;;3.00;2.00;;;;;15.65;53.48;102041.94;4996537;28;49785;-66
2022/05/14 01:35:51;;;;;;;;;3.25;3.00;;;;;15.65;53.89;102039.28;4996219;28;49961;-66
2022/05/14 01:38:18;;;;;;;;;3.75;3.75;;;;;15.66;53.85;102057.84;4996219;28;50399;-71
2022/05/14 01:40:43;;;;;;;;;3.75;3.75;;;;;15.66;53.72;102062.25;4996180;28;49603;-69
2022/05/14 01:43:09;;;;;;;;;3.00;2.25;;;;;15.53;53.90;102039.88;4996344;28;49703;-67
2022/05/14 01:45:35;;;;;;;;;2.25;2.25;;;;;15.43;53.78;102020.25;4996552;28;49802;-67
2022/05/14 01:48:01;;;;;;;;;3.50;3.50;;;;;15.51;54.55;102041.59;4995827;28;50335;-71
2022/05/14 01:50:27;;;;;;;;;3.00;2.00;;;;;15.42;54.44;102017.59;4995996;28;49932;-68
2022/05/14 01:52:53;;;;;;;;;6.50;4.00;;;;;15.36;54.66;102018.38;4996182;28;49706;-70
2022/05/14 01:55:18;;;;;;;;;3.00;2.50;;;;;15.52;54.61;102053.06;4988785;28;49559;-69
2022/05/14 01:57:44;;;;;;;;;4.25;4.25;;;;;15.31;54.60;102014.72;4996149;28;49542;-68
2022/05/14 02:00:11;;;;;;;;;3.75;3.75;;;;;15.37;54.55;102033.38;4996016;28;49643;-68
2022/05/14 02:02:36;;;;;;;;;3.50;2.50;;;;;15.36;55.44;102036.88;4995818;28;49770;-70
2022/05/14 02:05:03;;;;;;;;;6.00;4.25;;;;;15.45;55.38;102046.78;4995821;28;50241;-70
2022/05/14 02:07:28;;;;;;;;;7.00;5.00;;;;;15.30;55.62;102025.28;4995542;28;49624;-71
2022/05/14 02:09:53;;;;;;;;;3.75;3.75;;;;;15.35;55.80;102035.09;4995803;28;49784;-66
2022/05/14 02:12:19;;;;;;;;;4.00;2.75;;;;;15.38;55.92;102043.09;4995878;28;49717;-71
2022/05/14 02:14:45;;;;;;;;;4.00;4.00;;;;;15.34;55.84;102038.59;4995972;28;49830;-66
2022/05/14 02:17:12;;;;;;;;;5.75;5.75;;;;;15.30;56.06;102036.75;4995445;28;49845;-72
2022/05/14 02:19:37;;;;;;;;;4.50;3.75;;;;;15.25;55.91;102026.91;4995436;28;49993;-66
2022/05/14 02:22:05;;;;;;;;;6.00;5.75;;;;;15.25;55.98;102038.41;4995621;28;49901;-66
2022/05/14 02:24:31;;;;;;;;;5.25;5.25;;;;;15.11;56.27;102014.28;4995849;28;50001;-71
2022/05/14 02:26:56;;;;;;;;;6.50;5.25;;;;;15.10;56.30;102012.50;4995351;28;49700;-69
2022/05/14 02:29:21;;;;;;;;;6.50;5.25;;;;;15.20;56.66;102033.88;4995357;28;49749;-65
2022/05/14 02:31:47;;;;;;;;;6.00;5.75;;;;;14.72;56.56;101958.75;4995693;28;49562;-71
2022/05/14 02:34:12;;;;;;;;;5.75;5.00;;;;;15.06;56.63;102017.72;4994959;28;49700;-66
2022/05/14 02:36:37;;;;;;;;;6.00;6.00;;;;;15.16;56.72;102032.91;4995227;28;52044;-71
2022/05/14 02:39:03;;;;;;;;;7.75;6.00;;;;;15.13;56.74;102038.13;4995361;28;50295;-72
2022/05/14 02:41:29;;;;;;;;;3.50;3.50;;;;;15.07;56.89;102030.97;4995532;28;49694;-66
2022/05/14 02:43:54;;;;;;;;;4.00;4.00;;;;;15.10;56.85;102038.06;4995651;28;49674;-70
2022/05/14 02:46:19;;;;;;;;;5.00;4.75;;;;;15.08;57.12;102040.69;4994742;28;55419;-70
2022/05/14 02:48:45;;;;;;;;;4.00;4.00;;;;;15.08;56.95;102045.06;4995137;28;49689;-72
2022/05/14 02:51:10;;;;;;;;;4.75;4.50;;;;;14.93;57.35;102028.84;4995422;28;49629;-70
2022/05/14 02:53:36;;;;;;;;;3.50;3.00;;;;;14.96;56.94;102028.91;4995026;28;49793;-72
2022/05/14 02:56:01;;;;;;;;;8.50;5.25;;;;;14.95;57.30;102033.31;4995013;28;50657;-71
2022/05/14 03:01:11;;;;;;;;;6.25;5.25;;;;;14.93;57.11;102039.41;4995099;28;49923;-66
2022/05/14 03:03:37;;;;;;;;;4.00;4.00;;;;;14.84;57.60;102017.19;4995276;28;49744;-72
2022/05/14 03:06:03;;;;;;;;;4.00;4.00;;;;;15.04;57.39;102052.03;4994481;28;50477;-72
2022/05/14 03:08:29;;;;;;;;;7.00;5.75;;;;;15.05;57.77;102045.88;4994960;28;49830;-71
2022/05/14 03:10:55;;;;;;;;;4.00;4.00;;;;;14.78;57.46;101998.56;4994990;28;49749;-66
2022/05/14 03:13:20;;;;;;;;;5.00;4.00;;;;;14.94;57.63;102026.22;4995110;28;49515;-66
2022/05/14 03:15:46;;;;;;;;;6.50;6.50;;;;;15.06;57.76;102046.78;4994644;28;49698;-68
2022/05/14 03:18:11;;;;;;;;;4.50;4.50;;;;;15.01;57.94;102044.03;4993902;28;49556;-66
2022/05/14 03:20:37;;;;;;;;;5.75;4.25;;;;;15.05;57.69;102044.97;4994594;28;49813;-67
2022/05/14 03:23:02;;;;;;;;;6.50;6.00;;;;;15.01;58.35;102028.16;4994932;28;49998;-68
2022/05/14 03:25:28;;;;;;;;;5.00;3.50;;;;;14.87;58.39;102019.03;4994332;28;50478;-66
2022/05/14 03:27:54;;;;;;;;;9.75;5.25;;;;;15.02;58.30;102047.56;4994161;28;49752;-66
2022/05/14 03:30:19;;;;;;;;;10.00;6.00;;;;;14.97;58.30;102042.19;4994662;28;49910;-69
2022/05/14 03:32:44;;;;;;;;;6.25;6.25;;;;;14.99;58.38;102052.78;4994018;28;49840;-66
2022/05/14 03:35:10;;;;;;;;;8.00;8.00;;;;;14.96;58.59;102039.47;4993977;28;56758;-66
2022/05/14 03:37:36;;;;;;;;;5.75;5.75;;;;;14.95;58.67;102053.56;4994567;28;49896;-72
2022/05/14 03:40:03;;;;;;;;;7.00;6.50;;;;;14.93;58.83;102050.88;4994336;28;49768;-65
2022/05/14 03:42:30;;;;;;;;;6.75;6.25;;;;;14.91;58.62;102051.72;4994452;28;49994;-72
2022/05/14 03:44:56;;;;;;;;;7.00;6.75;;;;;14.83;59.11;102039.19;4994238;28;50335;-68
2022/05/14 03:47:21;;;;;;;;;7.50;7.00;;;;;14.82;58.79;102042.72;4985299;28;49742;-72
2022/05/14 03:49:46;;;;;;;;;9.75;7.00;;;;;14.71;59.18;102024.81;4993729;28;49853;-69
2022/05/14 03:52:12;;;;;;;;;9.25;6.00;;;;;14.80;59.47;102044.44;4994501;28;49869;-72
2022/05/14 03:54:38;;;;;;;;;7.00;6.00;;;;;14.74;59.83;102040.72;4993759;28;50159;-69
2022/05/14 03:57:06;;;;;;;;;8.50;8.50;;;;;14.77;59.79;102047.00;4994238;28;49789;-66
2022/05/14 03:59:31;;;;;;;;;7.25;7.25;;;;;14.74;59.90;102035.44;4994058;28;49815;-69
2022/05/14 04:01:56;;;;;;;;;9.75;7.00;;;;;14.76;59.67;102041.66;4994345;28;49689;-65
2022/05/14 04:04:22;;;;;;;;;5.75;5.75;;;;;14.75;59.90;102031.94;4991997;28;51196;-65
2022/05/14 04:06:47;;;;;;;;;9.50;8.25;;;;;14.59;60.12;102012.19;4994001;28;49752;-73
2022/05/14 04:09:12;;;;;;;;;10.25;6.50;;;;;14.58;60.14;102011.31;4993830;28;50003;-68
2022/05/14 04:11:38;;;;;;;;;6.25;6.00;;;;;14.59;60.04;102023.66;4993903;28;49899;-72
2022/05/14 04:14:03;;;;;;;;;5.50;5.50;;;;;14.62;59.70;102030.75;4993523;28;50407;-68
2022/05/14 04:16:29;;;;;;;;;10.50;7.75;;;;;14.56;60.44;102027.97;4993506;28;49994;-65
2022/05/14 04:18:55;;;;;;;;;5.25;5.25;;;;;14.67;59.84;102041.44;4993704;28;49713;-66
2022/05/14 04:21:21;;;;;;;;;12.00;8.50;;;;;14.72;59.82;102050.38;4994051;28;49785;-68
2022/05/14 04:23:46;;;;;;;;;11.00;8.25;;;;;14.51;60.25;102011.13;4993414;28;50489;-72
2022/05/14 04:26:12;;;;;;;;;7.00;6.00;;;;;14.74;59.80;102044.25;4993664;28;49712;-66
2022/05/14 04:28:37;;;;;;;;;8.25;8.25;;;;;14.75;59.75;102046.06;4993605;28;49672;-72
2022/05/14 04:31:03;;;;;;;;;8.25;6.75;;;;;14.77;59.88;102041.72;4993746;28;49812;-68
2022/05/14 04:33:28;;;;;;;;;11.00;9.25;;;;;14.65;59.45;102022.91;4991456;28;50550;-67
2022/05/14 04:35:54;;;;;;;;;6.25;4.75;;;;;14.79;59.80;102050.56;4993502;28;49629;-66
2022/05/14 04:38:20;;;;;;;;;9.75;7.00;;;;;14.73;59.68;102038.94;4993323;28;49859;-67
2022/05/14 04:40:46;;;;;;;;;11.25;7.25;;;;;14.78;59.66;102046.16;4993529;28;49883;-66
2022/05/14 04:43:12;;;;;;;;;5.75;5.75;;;;;14.84;60.11;102055.97;4993491;28;49764;-66
2022/05/14 04:45:40;;;;;;;;;10.25;7.00;;;;;14.81;60.11;102050.59;4993611;28;49625;-66
2022/05/14 04:48:06;;;;;;;;;6.25;6.25;;;;;14.85;59.63;102045.41;4993158;28;49544;-72
2022/05/14 04:50:32;;;;;;;;;7.00;7.00;;;;;14.92;59.94;102057.03;4993426;28;49601;-66
2022/05/14 04:52:57;;;;;;;;;8.25;7.00;;;;;14.77;59.59;102027.63;4992893;28;50633;-71
2022/05/14 04:55:23;;;;;;;;;11.00;9.00;;;;;14.77;59.01;102031.16;4992803;28;51101;-72
2022/05/14 04:57:48;;;;;;;;;13.00;12.00;;;;;14.96;58.94;102064.19;4995634;28;49856;-65
2022/05/14 05:00:15;;;;;;;;;6.50;5.00;;;;;14.88;59.16;102034.03;5000192;28;49729;-72
2022/05/14 05:05:26;;;;;;;;;6.75;5.00;;;;;14.79;58.69;102010.91;4999099;28;49728;-68
2022/05/14 05:07:52;;;;;;;;;9.00;9.00;;;;;14.94;58.79;102031.53;4999578;28;49895;-71
2022/05/14 05:10:18;;;;;;;;;9.75;7.25;;;;;15.10;58.52;102053.94;5000047;28;49697;-71
2022/05/14 05:12:43;;;;;;;;;10.50;8.25;;;;;15.00;58.56;102026.38;4999588;28;50728;-66
2022/05/14 05:15:10;;;;;;;;;7.75;6.00;;;;;15.12;58.47;102055.75;4999355;28;49760;-69
2022/05/14 05:17:35;;;;;;;;;9.25;7.25;;;;;15.17;58.37;102047.94;4999223;28;49641;-66
2022/05/14 05:20:00;;;;;;;;;11.25;8.25;;;;;15.17;57.69;102045.28;4999067;28;49705;-69
2022/05/14 05:22:26;;;;;;;;;8.00;7.00;;;;;15.23;58.15;102061.28;4999399;28;49983;-67
2022/05/14 05:24:51;;;;;;;;;7.00;7.00;;;;;15.31;58.13;102061.44;4999353;28;49815;-69
2022/05/14 05:27:17;;;;;;;;;11.25;8.50;;;;;15.07;57.51;102011.56;5000025;28;49622;-67
2022/05/14 05:29:42;;;;;;;;;10.50;10.50;;;;;15.42;57.55;102071.41;4999969;28;49770;-65
2022/05/14 05:32:08;;;;;;;;;12.50;10.00;;;;;15.44;57.14;102067.06;4998964;28;49812;-72
2022/05/14 05:34:33;;;;;;;;;14.50;14.25;;;;;15.46;57.22;102061.78;4999187;28;49807;-67
2022/05/14 05:36:59;;;;;;;;;13.25;11.75;;;;;15.47;57.21;102060.94;4999342;28;49712;-73
2022/05/14 05:39:24;;;;;;;;;12.75;10.00;;;;;15.45;56.94;102052.97;4999486;28;49771;-72
2022/05/14 05:41:49;;;;;;;;;8.75;7.50;;;;;15.51;56.67;102059.22;4998710;28;50518;-72
2022/05/14 05:44:15;;;;;;;;;13.25;11.25;;;;;15.63;56.40;102067.47;4999425;28;49764;-71
2022/05/14 05:46:40;;;;;;;;;14.75;12.50;;;;;15.50;56.40;102037.16;4999436;28;49784;-66
2022/05/14 05:49:06;;;;;;;;;14.00;11.00;;;;;15.69;56.50;102068.47;4999537;28;49852;-66
2022/05/14 05:51:32;;;;;;;;;13.25;8.00;;;;;15.77;56.01;102067.75;4998642;28;50503;-67
2022/05/14 05:56:55;;;;;;;;;8.25;6.75;;;;;15.80;54.65;102070.47;4999406;28;49551;-70
2022/05/14 05:59:21;;;;;;;;;8.00;7.00;;;;;15.69;54.84;102043.75;4999172;28;49621;-70
2022/05/14 06:01:47;;;;;;;;;7.00;6.50;;;;;15.71;54.97;102037.63;4998257;28;50447;-67
2022/05/14 06:04:13;;;;;;;;;5.00;5.00;;;;;15.94;54.29;102069.00;4995581;28;49819;-69
2022/05/14 06:06:41;;;;;;;;;3.50;3.25;;;;;15.85;54.59;102067.06;4998787;28;50073;-67
2022/05/14 06:09:08;;;;;;;;;5.00;4.00;;;;;16.02;54.16;102081.53;4996686;28;50108;-66
2022/05/14 06:11:33;;;;;;;;;5.00;5.00;;;;;15.99;53.08;102070.84;4989358;28;50283;-70
2022/05/14 06:13:59;;;;;;;;;7.00;4.25;;;;;16.06;53.62;102078.94;4995136;28;49634;-66
2022/05/14 06:16:25;;;;;;;;;7.00;3.75;;;;;16.08;53.48;102079.84;4995630;28;49535;-66
2022/05/14 06:18:51;;;;;;;;;4.75;4.75;;;;;15.99;53.22;102051.41;4996021;28;50163;-71
2022/05/14 06:21:16;;;;;;;;;5.25;5.25;;;;;15.98;52.46;102066.41;5002736;28;49697;-66
2022/05/14 06:23:41;;;;;;;;;6.25;4.50;;;;;16.04;52.45;102086.84;4996485;28;49580;-69
2022/05/14 06:26:08;;;;;;;;;6.50;5.00;;;;;15.74;52.10;102043.00;4995529;28;50021;-66
2022/05/14 06:28:34;;;;;;;;;2.75;1.50;;;;;16.18;52.09;102090.63;4995893;28;49744;-71
2022/05/14 06:30:59;;;;;;;;;3.25;3.25;;;;;16.16;52.04;102078.22;4997899;28;49749;-71
2022/05/14 06:33:28;;;;;;;;;4.00;4.00;;;;;16.38;52.02;102098.06;5004007;28;49874;-67
2022/05/14 06:35:54;;;;;;;;;5.00;2.25;;;;;16.42;50.52;102099.94;4995323;28;49638;-65
2022/05/14 06:38:19;;;;;;;;;5.00;4.25;;;;;16.12;50.61;102049.91;4995690;28;49775;-66
2022/05/14 06:40:46;;;;;;;;;4.00;4.00;;;;;16.38;50.46;102091.00;4995184;28;50475;-66
2022/05/14 06:43:15;;;;;;;;;2.00;2.00;;;;;16.39;50.73;102078.66;4995232;28;49734;-73
2022/05/14 06:45:41;;;;;;;;;3.75;2.50;;;;;16.65;50.16;102092.38;4995314;28;49694;-66
2022/05/14 06:48:06;;;;;;;;;3.00;1.75;;;;;16.44;49.50;102056.66;4993786;28;49623;-71
2022/05/14 06:50:37;;;;;;;;;2.25;2.00;;;;;16.59;49.53;102079.88;4995537;28;50161;-68
2022/05/14 06:53:04;;;;;;;;;2.75;1.75;;;;;16.78;49.72;102084.66;4994914;28;49726;-67
2022/05/14 06:55:34;;;;;;;;;2.75;2.75;;;;;16.83;48.68;102087.41;4995141;28;49892;-65
2022/05/14 06:58:00;;;;;;;;;1.00;1.00;;;;;16.71;48.74;102068.66;4995234;28;50086;-71
2022/05/14 07:00:25;;;;;;;;;4.25;3.25;;;;;16.83;48.99;102080.34;4994992;28;50690;-65
2022/05/14 07:02:51;;;;;;;;;1.00;1.00;;;;;16.95;48.39;102092.88;4994979;28;49694;-67
2022/05/14 07:08:02;;;;;;;;;3.25;2.25;;;;;16.96;48.44;102093.78;4995004;28;49932;-65
2022/05/14 07:10:28;;;;;;;;;3.00;3.00;;;;;16.94;48.52;102074.31;4995270;28;49667;-65
2022/05/14 07:12:55;;;;;;;;;3.00;3.00;;;;;17.21;48.45;102084.44;4997024;28;49852;-66
2022/05/14 07:15:21;;;;;;;;;4.50;4.00;;;;;17.37;48.38;102083.78;5002004;28;49883;-66
2022/05/14 07:17:46;;;;;;;;;3.00;3.00;;;;;17.30;48.13;102056.28;4994982;28;49924;-70
2022/05/14 07:20:11;;;;;;;;;3.00;3.00;;;;;17.56;47.98;102079.59;5000150;28;50725;-74
2022/05/14 07:22:37;;;;;;;;;5.00;4.00;;;;;17.57;47.39;102079.66;4994346;28;49666;-71
2022/05/14 07:25:03;;;;;;;;;5.00;3.00;;;;;17.45;47.44;102067.09;4994766;28;50252;-74
2022/05/14 07:27:29;;;;;;;;;3.25;2.00;;;;;17.23;47.58;102021.66;4994448;28;49654;-67
2022/05/14 07:29:54;;;;;;;;;6.25;4.00;;;;;17.67;47.36;102076.25;4992432;28;50343;-70
2022/05/14 07:32:20;;;;;;;;;5.25;3.75;;;;;17.77;47.07;102071.97;4994316;28;49705;-71
2022/05/14 07:34:46;;;;;;;;;5.00;4.00;;;;;17.85;47.09;102075.56;4994826;28;49666;-68
2022/05/14 07:37:21;;;;;;;;;4.50;4.50;;;;;17.94;47.27;102072.13;4994401;28;49643;-69
2022/05/14 07:39:53;;;;;;;;;6.50;5.00;;;;;17.89;46.58;102050.84;4994272;28;50452;-70
2022/05/14 07:42:24;;;;;;;;;7.25;4.50;;;;;18.07;46.50;102063.44;4997527;28;49802;-71
2022/05/14 07:44:53;;;;;;;;;8.25;6.00;;;;;17.83;46.52;102028.63;4994370;28;49741;-71
2022/05/14 07:47:19;;;;;;;;;6.00;6.00;;;;;17.87;47.02;102041.09;4994465;28;50257;-69
2022/05/14 07:49:49;;;;;;;;;4.00;4.00;;;;;18.09;46.76;102069.66;4996641;28;49839;-70
2022/05/14 07:52:16;;;;;;;;;7.75;5.25;;;;;18.12;46.71;102074.13;4983509;28;49745;-67
2022/05/14 07:54:42;;;;;;;;;7.25;5.75;;;;;18.13;46.53;102055.53;4991065;28;50038;-72
2022/05/14 07:57:07;;;;;;;;;6.00;4.25;;;;;18.23;46.31;102064.47;4991872;28;49732;-67
2022/05/14 07:59:36;;;;;;;;;7.25;6.00;;;;;18.24;46.67;102066.28;4992162;28;50033;-66
2022/05/14 08:02:18;;;;;;;;;5.25;4.00;;;;;18.03;46.07;102022.66;4990483;28;49768;-68
2022/05/14 08:04:44;;;;;;;;;5.25;5.00;;;;;18.30;46.70;102069.00;4993002;28;49923;-69
2022/05/14 08:07:09;;;;;;;;;3.00;3.00;;;;;18.30;46.06;102043.28;4992794;28;49813;-67
2022/05/14 08:09:34;;;;;;;;;5.75;5.75;;;;;18.53;45.91;102054.16;4993887;28;50275;-68
2022/05/14 08:11:59;;;;;;;;;5.75;5.75;;;;;18.02;45.53;101956.22;4993707;28;50396;-70
2022/05/14 08:14:26;;;;;;;;;4.00;4.00;;;;;18.45;45.42;102039.91;4994026;28;49936;-71
2022/05/14 08:16:51;;;;;;;;;5.50;5.50;;;;;18.62;45.24;102055.09;4993990;28;49650;-70
2022/05/14 08:19:16;;;;;;;;;6.25;5.50;;;;;18.36;45.16;101993.72;4993928;28;50483;-69
2022/05/14 08:24:34;;;;;;;;;3.75;3.75;;;;;18.80;44.95;102063.25;4993874;28;49753;-68
2022/05/14 08:27:09;;;;;;;;;3.75;3.75;;;;;18.82;44.89;102051.75;4994911;28;49638;-69
2022/05/14 08:29:35;;;;;;;;;3.75;3.75;;;;;18.79;44.54;102062.34;4993480;28;50412;-72
2022/05/14 08:32:01;;;;;;;;;4.25;3.00;;;;;18.75;45.22;102057.91;4993032;28;49818;-70
2022/05/14 08:34:27;;;;;;;;;4.00;4.00;;;;;18.70;44.39;102027.69;4993764;28;49686;-70
2022/05/14 08:36:52;;;;;;;;;4.25;4.25;;;;;18.93;44.45;102045.63;4992574;28;50050;-71
2022/05/14 08:39:17;;;;;;;;;4.50;4.50;;;;;19.07;44.42;102050.13;4993289;28;50304;-73
2022/05/14 08:41:47;;;;;;;;;5.00;4.50;;;;;19.05;44.59;102025.28;4993340;28;49744;-72
2022/05/14 08:44:17;;;;;;;;;5.50;4.00;;;;;19.26;43.86;102055.56;4993601;28;49606;-68
2022/05/14 08:46:44;;;;;;;;;8.50;4.75;;;;;19.23;43.82;102045.81;4993554;28;49986;-68
2022/05/14 08:49:19;;;;;;;;;4.25;4.25;;;;;19.20;43.93;102036.88;4993417;28;50633;-69
2022/05/14 08:51:49;;;;;;;;;4.00;3.00;;;;;18.83;43.81;101968.41;4987297;28;49856;-69
2022/05/14 08:54:15;;;;;;;;;3.00;3.00;;;;;19.37;43.73;102041.44;4993090;28;49879;-68
2022/05/14 08:57:19;;;;;;;;;4.25;4.00;;;;;19.30;43.71;102029.00;4993557;28;49762;-70
2022/05/14 08:59:55;;;;;;;;;6.25;5.00;;;;;19.52;43.39;102040.63;4978299;28;50938;-70
2022/05/14 09:02:36;;;;;;;;;4.00;4.00;;;;;19.51;43.58;102043.28;4987027;28;49655;-69
2022/05/14 09:05:16;;;;;;;;;5.25;3.75;;;;;19.59;43.18;102050.47;4993291;28;49764;-69
2022/05/14 09:07:42;;;;;;;;;4.00;3.00;;;;;19.52;42.87;102015.75;4993287;28;49949;-70
2022/05/14 09:10:20;;;;;;;;;3.25;2.50;;;;;19.72;42.86;102038.94;4993105;28;50468;-69
2022/05/14 09:13:00;;;;;;;;;5.25;5.25;;;;;19.84;42.77;102043.44;4993119;28;49764;-69
2022/05/14 09:15:28;;;;;;;;;3.25;3.25;;;;;19.83;42.62;102024.78;4993177;28;49532;-68
2022/05/14 09:18:27;;;;;;;;;4.50;4.50;;;;;19.97;42.82;102021.25;4993380;28;50089;-69
2022/05/14 09:20:58;;;;;;;;;5.25;3.25;;;;;20.15;42.61;102031.03;4985051;28;49855;-71
2022/05/14 09:23:29;;;;;;;;;4.25;3.75;;;;;20.15;42.06;102028.38;4992940;28;49674;-69
2022/05/14 09:25:57;;;;;;;;;4.75;4.25;;;;;20.07;42.11;102023.91;4993053;28;49655;-68
2022/05/14 09:28:35;;;;;;;;;5.00;5.00;;;;;20.15;42.11;102025.72;4991907;28;50050;-69
2022/05/14 09:31:01;;;;;;;;;3.00;3.00;;;;;20.13;42.18;102031.94;4992922;28;50173;-72
2022/05/14 09:33:37;;;;;;;;;4.50;4.50;;;;;20.19;42.17;102030.19;4992896;28;49885;-72
2022/05/14 09:36:04;;;;;;;;;3.75;3.75;;;;;20.26;41.91;102025.72;4986436;28;49753;-72
2022/05/14 09:38:30;;;;;;;;;4.00;4.00;;;;;20.35;41.50;102017.72;4993015;28;49766;-71
2022/05/14 09:41:08;;;;;;;;;3.00;3.00;;;;;20.42;41.45;102016.84;4992638;28;50792;-71
2022/05/14 09:43:38;;;;;;;;;3.00;2.00;;;;;20.51;40.27;102016.88;4992841;28;49667;-71
2022/05/14 09:46:10;;;;;;;;;5.00;4.00;;;;;20.53;40.63;102001.75;4995578;28;49756;-70
2022/05/14 09:48:48;;;;;;;;;3.00;3.00;;;;;20.54;40.71;102006.22;4996314;28;49718;-71
2022/05/14 09:51:55;;;;;;;;;2.75;2.75;;;;;20.59;40.45;102000.88;4995699;28;49892;-69
2022/05/14 09:54:26;;;;;;;;;5.00;5.00;;;;;20.64;40.83;101992.84;4986770;28;50002;-69
2022/05/14 09:57:36;;;;;;;;;4.75;3.75;;;;;20.62;39.93;101989.31;4995972;28;49909;-67
2022/05/14 10:00:26;;;;;;;;;6.25;5.00;;;;;20.29;40.00;101951.97;4996076;28;49947;-69
2022/05/14 10:03:12;;;;;;;;;6.75;5.75;;;;;20.55;39.25;101988.41;4995613;28;49859;-68
2022/05/14 10:06:02;;;;;;;;;3.00;2.75;;;;;20.38;39.44;101942.19;4995766;28;50084;-72
2022/05/14 10:08:59;;;;;;;;;6.00;3.00;;;;;20.72;39.34;101975.94;4995856;28;49721;-72
2022/05/14 10:11:34;;;;;;;;;2.75;2.75;;;;;20.65;38.65;101941.28;4995153;28;50009;-71
2022/05/14 10:14:03;;;;;;;;;7.75;7.75;;;;;20.90;39.02;101980.38;4994704;28;49800;-70
2022/05/14 10:16:49;;;;;;;;;12.50;11.25;;;;;20.86;38.12;101982.16;4995660;28;49882;-71
2022/05/14 10:19:24;;;;;;;;;5.50;5.50;;;;;20.83;38.46;101979.47;4994485;28;50220;-68
2022/05/14 10:22:02;;;;;;;;;14.50;13.25;;;;;20.94;38.40;101974.16;4995369;28;49933;-68
2022/05/14 10:27:43;;;;;;;;;4.50;4.50;;;;;20.95;38.27;101975.91;4995400;28;49685;-72
2022/05/14 10:30:21;;;;;;;;;2.50;2.50;;;;;20.89;38.40;101946.56;4995463;28;49946;-69
2022/05/14 10:32:51;;;;;;;;;3.50;3.50;;;;;20.90;38.53;101934.09;4995769;28;49865;-74
2022/05/14 10:35:25;;;;;;;;;3.75;3.25;;;;;21.21;37.98;101975.81;4977726;28;52586;-76
2022/05/14 10:38:12;;;;;;;;;3.00;3.00;;;;;21.08;38.03;101942.06;4991706;28;49855;-70
2022/05/14 10:41:00;;;;;;;;;2.75;2.00;;;;;21.41;38.08;101962.41;4994286;28;49866;-70
2022/05/14 10:43:38;;;;;;;;;3.00;2.50;;;;;21.50;37.72;101959.69;4988249;28;50268;-71
2022/05/14 10:46:10;;;;;;;;;1.50;1.50;;;;;21.60;38.35;101960.53;4995296;28;50732;-70
2022/05/14 10:48:55;;;;;;;;;4.00;3.00;;;;;21.60;37.25;101968.53;4995011;28;50195;-69
2022/05/14 10:51:28;;;;;;;;;3.75;3.75;;;;;21.53;37.60;101950.78;4994856;28;49676;-69
2022/05/14 10:53:54;;;;;;;;;3.00;3.00;;;;;21.57;37.49;101956.09;4995086;28;49785;-72
2022/05/14 10:56:27;;;;;;;;;4.50;4.50;;;;;21.61;37.56;101959.63;4994542;28;49705;-70
2022/05/14 10:59:12;;;;;;;;;3.00;2.50;;;;;21.67;37.56;101962.28;4995038;28;49840;-69
2022/05/14 11:01:58;;;;;;;;;4.75;4.75;;;;;21.52;37.48;101915.16;4994377;28;49703;-69
2022/05/14 11:04:26;;;;;;;;;4.50;4.00;;;;;21.80;37.32;101955.06;4994989;28;49821;-69
2022/05/14 11:06:58;;;;;;;;;5.00;4.25;;;;;21.64;37.08;101920.44;4994614;28;49754;-70
2022/05/14 11:09:23;;;;;;;;;3.25;3.25;;;;;21.93;37.47;101948.75;4994746;28;49756;-70
2022/05/14 11:12:00;;;;;;;;;5.25;5.25;;;;;21.94;37.23;101943.38;4993450;28;49591;-70
2022/05/14 11:14:46;;;;;;;;;6.00;4.25;;;;;21.99;36.32;101951.34;4995132;28;49901;-68
2022/05/14 11:17:24;;;;;;;;;5.50;4.25;;;;;21.94;36.38;101935.34;4994625;28;49789;-70
2022/05/14 11:19:52;;;;;;;;;6.00;3.75;;;;;21.68;36.18;101898.13;4994544;28;49667;-69
2022/05/14 11:22:33;;;;;;;;;4.00;3.00;;;;;21.50;36.57;101844.81;4994442;28;49838;-70
2022/05/14 11:25:17;;;;;;;;;4.75;4.00;;;;;22.09;36.24;101931.69;4977324;28;49830;-70
2022/05/14 11:28:11;;;;;;;;;1.00;0.00;;;;;21.58;35.71;101868.81;4994695;28;50456;-75
2022/05/14 11:30:50;;;;;;;;;3.50;3.50;;;;;21.95;35.83;101909.50;4990631;28;49818;-74
2022/05/14 11:33:27;;;;;;;;;4.00;2.50;;;;;22.06;35.96;101922.78;4994463;28;49776;-69
2022/05/14 11:36:00;;;;;;;;;4.00;3.50;;;;;21.83;36.00;101901.59;4994491;28;49791;-76
2022/05/14 11:38:26;;;;;;;;;4.50;4.25;;;;;21.99;36.02;101925.50;4994354;28;49764;-74
2022/05/14 11:40:57;;;;;;;;;3.00;3.00;;;;;21.96;35.59;101917.50;4994415;28;49717;-71
2022/05/14 11:43:27;;;;;;;;;3.00;3.00;;;;;22.04;35.77;101920.13;4988771;28;49820;-82
2022/05/14 11:46:10;;;;;;;;;6.25;4.75;;;;;22.05;35.55;101910.31;4995082;28;49829;-75
2022/05/14 11:49:11;;;;;;;;;5.00;5.00;;;;;22.11;35.31;101913.88;4994855;28;51098;-77
2022/05/14 11:51:51;;;;;;;;;4.25;3.50;;;;;22.12;35.19;101910.28;4972274;28;49814;-74
2022/05/14 11:54:31;;;;;;;;;2.25;2.25;;;;;22.20;35.17;101904.88;4994793;28;50017;-84
2022/05/14 11:57:11;;;;;;;;;3.50;3.50;;;;;22.21;34.69;101912.88;4994521;28;49777;-75